Kaiser — NHJK — position and weather

sailwx.info

Track history (hours):
 
Tides and Currents Weather Stations Pressure Air Temp Water Temp Dewpoint Dewpoint Depression Visibility Wind Speed Wind Dir Waves Ship Positions

Kaiser

Last reported at 2018-Jun-14 00:35 UTC. Time now 2018-Jun-24 20:33 UTC.
Position N 32°31' W 119°35'.
Warning: this ship's position is 10 days out of date.

Length 191 m.

Type: Tanker. MMSI: 303849000.

Date/timePositionNaut miles runAvg speedWind from/ knotsBaromVisibWave heightAir tempDewpointWater temp
2018-Jun-14 00:35N 32°31' W 119°35'216.6
2018-Jun-14 00:28N 32°32' W 119°33'716.0
2018-Jun-14 00:00N 32°34' W 119°25'713.3
2018-Jun-13 23:30N 32°36' W 119°17'4 8.5
2018-Jun-13 23:00N 32°36' W 119°12'612.4
2018-Jun-13 22:30N 32°36' W 119°05'816.7
2018-Jun-13 22:00N 32°36' W 118°55'714.5
2018-Jun-13 21:30N 32°36' W 118°46'3 5.4
2018-Jun-13 20:59N 32°36' W 118°43'714.0
2018-Jun-13 20:27N 32°36' W 118°34'714.4
2018-Jun-13 20:00N 32°36' W 118°26'815.7
2018-Jun-13 19:30N 32°36' W 118°17'816.3
2018-Jun-13 19:00N 32°36' W 118°07'715.0
2018-Jun-13 18:30N 32°35' W 117°58'3 5.3
2018-Jun-13 18:00N 32°36' W 118°01'711.2
2018-Jun-13 17:24N 32°37' W 118°09'511.6
2018-Jun-13 17:00N 32°37' W 118°15'713.0
2018-Jun-13 16:30N 32°37' W 118°23'712.6
2018-Jun-13 15:59N 32°37' W 118°30'612.5
2018-Jun-13 15:30N 32°37' W 118°37'712.5
2018-Jun-13 14:54N 32°36' W 118°46'512.6
2018-Jun-13 14:30N 32°36' W 118°52'611.9
2018-Jun-13 14:00N 32°36' W 118°59'1 1.0
2018-Jun-13 13:26N 32°36' W 118°59'510.7
2018-Jun-13 12:59N 32°36' W 118°53'610.8
2018-Jun-13 12:28N 32°36' W 118°46'511.0
2018-Jun-13 12:00N 32°36' W 118°40'510.9
2018-Jun-13 11:30N 32°36' W 118°34'611.1
2018-Jun-13 11:00N 32°36' W 118°27'1 1.0
2018-Jun-13 10:24N 32°36' W 118°27'410.3
2018-Jun-13 10:00N 32°36' W 118°32'610.4
2018-Jun-13 09:28N 32°36' W 118°38'510.5
2018-Jun-13 08:59N 32°36' W 118°44'510.4
2018-Jun-13 08:31N 32°36' W 118°50'510.2
2018-Jun-13 08:00N 32°36' W 118°56'2 2.5
2018-Jun-13 07:20N 32°36' W 118°54'410.8
2018-Jun-13 07:00N 32°36' W 118°50'610.8
2018-Jun-13 06:29N 32°36' W 118°44'610.7
2018-Jun-13 05:56N 32°36' W 118°36'510.7
2018-Jun-13 05:30N 32°36' W 118°31'510.7
2018-Jun-13 05:00N 32°36' W 118°25'510.9
2018-Jun-13 04:31N 32°36' W 118°18'510.5
2018-Jun-13 04:00N 32°36' W 118°12'610.7
2018-Jun-13 03:25N 32°36' W 118°05'1 2.7
2018-Jun-13 03:00N 32°36' W 118°03'810.8
2018-Jun-13 02:16N 32°36' W 118°13'310.8
2018-Jun-13 02:00N 32°36' W 118°16'710.7
2018-Jun-13 01:21N 32°36' W 118°25'510.5
2018-Jun-13 00:53N 32°36' W 118°30'410.6
2018-Jun-13 00:30N 32°36' W 118°35'1313.7
2018-Jun-12 23:33N 32°36' W 118°51'112.8
2018-Jun-12 23:30N 32°36' W 118°51'4 7.2
2018-Jun-12 23:00N 32°36' W 118°47'610.3
2018-Jun-12 22:28N 32°36' W 118°40'510.6
2018-Jun-12 21:57N 32°36' W 118°34'510.5
2018-Jun-12 21:28N 32°36' W 118°28'510.6
2018-Jun-12 20:58N 32°36' W 118°22'510.7
2018-Jun-12 20:30N 32°36' W 118°16'510.7
2018-Jun-12 20:00N 32°36' W 118°10'510.3
2018-Jun-12 19:30N 32°36' W 118°03'3 6.0
2018-Jun-12 19:00N 32°36' W 118°07'510.7
2018-Jun-12 18:30N 32°36' W 118°13'510.7
2018-Jun-12 18:00N 32°36' W 118°20'510.5
2018-Jun-12 17:30N 32°37' W 118°26'612.4
2018-Jun-12 17:00N 32°37' W 118°33'712.9
2018-Jun-12 16:30N 32°37' W 118°41'1213.0
2018-Jun-12 15:36N 32°36' W 118°55'213.2
2018-Jun-12 15:26N 32°36' W 118°57'613.1
2018-Jun-12 14:57N 32°36' W 119°05'1111.1
2018-Jun-12 14:01N 32°36' W 119°17'612.6
2018-Jun-12 13:30N 32°36' W 119°25'5 7.8
2018-Jun-12 12:55N 32°35' W 119°20'1110.1
2018-Jun-12 11:49N 32°36' W 119°06'1210.5
2018-Jun-12 10:38N 32°36' W 118°52'110.7
2018-Jun-12 10:30N 32°36' W 118°50'510.7
2018-Jun-12 10:00N 32°36' W 118°44'2 4.3
2018-Jun-12 09:30N 32°36' W 118°46'510.3
2018-Jun-12 09:00N 32°36' W 118°52'510.2
2018-Jun-12 08:30N 32°35' W 118°58'4 7.2
2018-Jun-12 08:00N 32°36' W 118°54'610.7
2018-Jun-12 07:29N 32°36' W 118°48'510.6
2018-Jun-12 07:00N 32°36' W 118°42'510.5
2018-Jun-12 06:30N 32°36' W 118°35'610.7
2018-Jun-12 05:57N 32°36' W 118°28'510.5
2018-Jun-12 05:30N 32°36' W 118°23'510.7
2018-Jun-12 05:00N 32°36' W 118°16'510.6
2018-Jun-12 04:30N 32°36' W 118°10'510.6
2018-Jun-12 04:00N 32°36' W 118°04'510.6
2018-Jun-12 03:30N 32°36' W 117°58'510.3
2018-Jun-12 03:00N 32°36' W 117°51'510.5
2018-Jun-12 02:30N 32°36' W 117°45'5 9.9
2018-Jun-12 02:00N 32°36' W 117°39'4 8.4
2018-Jun-12 01:30N 32°36' W 117°34'714.1
2018-Jun-12 01:00N 32°36' W 117°26'713.3
2018-Jun-12 00:31N 32°36' W 117°18'5 9.4
2018-Jun-12 00:00N 32°39' W 117°13'4 8.4
2018-Jun-11 23:28N 32°43' W 117°12'  
2018-Jun-09 05:56N 32°42' W 117°11'0 0.0
2018-Jun-09 05:23N 32°42' W 117°11'  
Track history (hours):
 
Tides and Currents Weather Stations Pressure Air Temp Water Temp Dewpoint Dewpoint Depression Visibility Wind Speed Wind Dir Waves Ship Positions

Kaiser

Last reported at 2018-Jun-14 00:35 UTC. Time now 2018-Jun-24 20:33 UTC.
Position N 32°31' W 119°35'.
Warning: this ship's position is 10 days out of date.

Length 191 m.

Type: Tanker. MMSI: 303849000.

Date/timePositionNaut miles runAvg speedWind from/ knotsBaromVisibWave heightAir tempDewpointWater temp
2018-Jun-14 00:35N 32°31' W 119°35'216.6
2018-Jun-14 00:28N 32°32' W 119°33'716.0
2018-Jun-14 00:00N 32°34' W 119°25'713.3
2018-Jun-13 23:30N 32°36' W 119°17'4 8.5
2018-Jun-13 23:00N 32°36' W 119°12'612.4
2018-Jun-13 22:30N 32°36' W 119°05'816.7
2018-Jun-13 22:00N 32°36' W 118°55'714.5
2018-Jun-13 21:30N 32°36' W 118°46'3 5.4
2018-Jun-13 20:59N 32°36' W 118°43'714.0
2018-Jun-13 20:27N 32°36' W 118°34'714.4
2018-Jun-13 20:00N 32°36' W 118°26'815.7
2018-Jun-13 19:30N 32°36' W 118°17'816.3
2018-Jun-13 19:00N 32°36' W 118°07'715.0
2018-Jun-13 18:30N 32°35' W 117°58'3 5.3
2018-Jun-13 18:00N 32°36' W 118°01'711.2
2018-Jun-13 17:24N 32°37' W 118°09'511.6
2018-Jun-13 17:00N 32°37' W 118°15'713.0
2018-Jun-13 16:30N 32°37' W 118°23'712.6
2018-Jun-13 15:59N 32°37' W 118°30'612.5
2018-Jun-13 15:30N 32°37' W 118°37'712.5
2018-Jun-13 14:54N 32°36' W 118°46'512.6
2018-Jun-13 14:30N 32°36' W 118°52'611.9
2018-Jun-13 14:00N 32°36' W 118°59'1 1.0
2018-Jun-13 13:26N 32°36' W 118°59'510.7
2018-Jun-13 12:59N 32°36' W 118°53'610.8
2018-Jun-13 12:28N 32°36' W 118°46'511.0
2018-Jun-13 12:00N 32°36' W 118°40'510.9
2018-Jun-13 11:30N 32°36' W 118°34'611.1
2018-Jun-13 11:00N 32°36' W 118°27'1 1.0
2018-Jun-13 10:24N 32°36' W 118°27'410.3
2018-Jun-13 10:00N 32°36' W 118°32'610.4
2018-Jun-13 09:28N 32°36' W 118°38'510.5
2018-Jun-13 08:59N 32°36' W 118°44'510.4
2018-Jun-13 08:31N 32°36' W 118°50'510.2
2018-Jun-13 08:00N 32°36' W 118°56'2 2.5
2018-Jun-13 07:20N 32°36' W 118°54'410.8
2018-Jun-13 07:00N 32°36' W 118°50'610.8
2018-Jun-13 06:29N 32°36' W 118°44'610.7
2018-Jun-13 05:56N 32°36' W 118°36'510.7
2018-Jun-13 05:30N 32°36' W 118°31'510.7
2018-Jun-13 05:00N 32°36' W 118°25'510.9
2018-Jun-13 04:31N 32°36' W 118°18'510.5
2018-Jun-13 04:00N 32°36' W 118°12'610.7
2018-Jun-13 03:25N 32°36' W 118°05'1 2.7
2018-Jun-13 03:00N 32°36' W 118°03'810.8
2018-Jun-13 02:16N 32°36' W 118°13'310.8
2018-Jun-13 02:00N 32°36' W 118°16'710.7
2018-Jun-13 01:21N 32°36' W 118°25'510.5
2018-Jun-13 00:53N 32°36' W 118°30'410.6
2018-Jun-13 00:30N 32°36' W 118°35'1313.7
2018-Jun-12 23:33N 32°36' W 118°51'112.8
2018-Jun-12 23:30N 32°36' W 118°51'4 7.2
2018-Jun-12 23:00N 32°36' W 118°47'610.3
2018-Jun-12 22:28N 32°36' W 118°40'510.6
2018-Jun-12 21:57N 32°36' W 118°34'510.5
2018-Jun-12 21:28N 32°36' W 118°28'510.6
2018-Jun-12 20:58N 32°36' W 118°22'510.7
2018-Jun-12 20:30N 32°36' W 118°16'510.7
2018-Jun-12 20:00N 32°36' W 118°10'510.3
2018-Jun-12 19:30N 32°36' W 118°03'3 6.0
2018-Jun-12 19:00N 32°36' W 118°07'510.7
2018-Jun-12 18:30N 32°36' W 118°13'510.7
2018-Jun-12 18:00N 32°36' W 118°20'510.5
2018-Jun-12 17:30N 32°37' W 118°26'612.4
2018-Jun-12 17:00N 32°37' W 118°33'712.9
2018-Jun-12 16:30N 32°37' W 118°41'1213.0
2018-Jun-12 15:36N 32°36' W 118°55'213.2
2018-Jun-12 15:26N 32°36' W 118°57'613.1
2018-Jun-12 14:57N 32°36' W 119°05'1111.1
2018-Jun-12 14:01N 32°36' W 119°17'612.6
2018-Jun-12 13:30N 32°36' W 119°25'5 7.8
2018-Jun-12 12:55N 32°35' W 119°20'1110.1
2018-Jun-12 11:49N 32°36' W 119°06'1210.5
2018-Jun-12 10:38N 32°36' W 118°52'110.7
2018-Jun-12 10:30N 32°36' W 118°50'510.7
2018-Jun-12 10:00N 32°36' W 118°44'2 4.3
2018-Jun-12 09:30N 32°36' W 118°46'510.3
2018-Jun-12 09:00N 32°36' W 118°52'510.2
2018-Jun-12 08:30N 32°35' W 118°58'4 7.2
2018-Jun-12 08:00N 32°36' W 118°54'610.7
2018-Jun-12 07:29N 32°36' W 118°48'510.6
2018-Jun-12 07:00N 32°36' W 118°42'510.5
2018-Jun-12 06:30N 32°36' W 118°35'610.7
2018-Jun-12 05:57N 32°36' W 118°28'510.5
2018-Jun-12 05:30N 32°36' W 118°23'510.7
2018-Jun-12 05:00N 32°36' W 118°16'510.6
2018-Jun-12 04:30N 32°36' W 118°10'510.6
2018-Jun-12 04:00N 32°36' W 118°04'510.6
2018-Jun-12 03:30N 32°36' W 117°58'510.3
2018-Jun-12 03:00N 32°36' W 117°51'510.5
2018-Jun-12 02:30N 32°36' W 117°45'5 9.9
2018-Jun-12 02:00N 32°36' W 117°39'4 8.4
2018-Jun-12 01:30N 32°36' W 117°34'714.1
2018-Jun-12 01:00N 32°36' W 117°26'713.3
2018-Jun-12 00:31N 32°36' W 117°18'5 9.4
2018-Jun-12 00:00N 32°39' W 117°13'4 8.4
2018-Jun-11 23:28N 32°43' W 117°12'  
2018-Jun-09 05:56N 32°42' W 117°11'0 0.0
2018-Jun-09 05:23N 32°42' W 117°11'  

Dump ship's entire track history